Time;durP1;ratioP1;P1;durP2;ratioP2;P2;SDS_P1;SDS_P2;PMS_P1;PMS_P2;Temp;Humidity;BMP_temperature;BMP_pressure;BME280_temperature;BME280_humidity;BME280_pressure;Samples;Min_cycle;Max_cycle;Signal;HPM_P1;HPM_P2
2023/06/02 00:00:50;;;;;;;;;;;;;;;22.96;60.34;98541.78;2081330;28;19921;-49
2023/06/02 00:01:51;;;;;;;;;;;;;;;22.97;60.16;98542.59;2083156;28;20391;-46
2023/06/02 00:02:53;;;;;;;;;;;;;;;22.97;60.16;98543.41;2083583;28;19966;-47
2023/06/02 00:03:55;;;;;;;;;;;;;;;22.99;60.43;98545.91;2087751;28;19982;-49
2023/06/02 00:04:57;;;;;;;;;;;;;;;22.99;60.09;98545.09;2088355;28;19932;-50
2023/06/02 00:06:03;;;;;;;;;;;;;;;22.98;60.25;98549.63;2084649;28;19928;-46
2023/06/02 00:07:03;;;;;;;;;;;;;;;22.99;60.33;98545.09;2085960;28;20587;-51
2023/06/02 00:08:05;;;;;;;;;;;;;;;22.98;60.20;98552.34;2086734;28;20011;-48
2023/06/02 00:09:07;;;;;;;;;;;;;;;22.97;60.32;98542.59;2088581;28;20618;-49
2023/06/02 00:10:10;;;;;;;;;;;;;;;22.97;60.29;98543.41;2086778;28;19963;-48
2023/06/02 00:11:12;;;;;;;;;;;;;;;22.97;60.23;98543.41;2088032;28;20393;-47
2023/06/02 00:12:13;;;;;;;;;;;;;;;22.96;60.31;98540.97;2083288;28;20339;-46
2023/06/02 00:13:14;;;;;;;;;;;;;;;22.96;60.23;98535.56;2086021;28;19921;-50
2023/06/02 00:14:15;;;;;;;;;;;;;;;22.96;60.21;98539.06;2087184;28;19944;-51
2023/06/02 00:15:17;;;;;;;;;;;;;;;22.96;60.23;98532.84;2082706;28;20495;-49
2023/06/02 00:16:17;;;;;;;;;;;;;;;22.97;60.28;98532.59;2088679;28;19924;-45
2023/06/02 00:17:19;;;;;;;;;;;;;;;22.96;60.24;98536.38;2086616;28;20396;-49
2023/06/02 00:18:20;;;;;;;;;;;;;;;22.94;60.33;98533.03;2076951;28;19925;-46
2023/06/02 00:19:23;;;;;;;;;;;;;;;22.96;60.19;98536.38;2075911;28;19935;-47
2023/06/02 00:20:26;;;;;;;;;;;;;;;22.96;60.31;98530.97;2087702;28;19921;-49
2023/06/02 00:21:27;;;;;;;;;;;;;;;22.95;60.36;98528.44;2086723;28;20003;-47
2023/06/02 00:22:29;;;;;;;;;;;;;;;22.96;60.22;98530.97;2088417;28;20672;-50
2023/06/02 00:23:30;;;;;;;;;;;;;;;22.97;60.12;98529.06;2085998;28;21682;-51
2023/06/02 00:24:31;;;;;;;;;;;;;;;22.96;60.18;98528.25;2085485;28;20023;-47
2023/06/02 00:25:34;;;;;;;;;;;;;;;22.96;60.24;98527.44;2085265;28;19928;-45
2023/06/02 00:26:34;;;;;;;;;;;;;;;22.97;60.14;98535.31;2083622;28;19956;-51
2023/06/02 00:27:36;;;;;;;;;;;;;;;22.99;60.15;98534.25;2082370;28;20306;-49
2023/06/02 00:28:36;;;;;;;;;;;;;;;22.95;60.25;98529.28;2083429;28;20776;-49
2023/06/02 00:29:38;;;;;;;;;;;;;;;22.94;60.24;98529.50;2083481;28;19925;-47
2023/06/02 00:30:39;;;;;;;;;;;;;;;22.93;59.86;98533.28;2087807;28;20661;-48
2023/06/02 00:31:40;;;;;;;;;;;;;;;22.92;60.19;98528.91;2085632;28;19936;-47
2023/06/02 00:32:41;;;;;;;;;;;;;;;22.92;60.26;98529.72;2086533;28;19931;-46
2023/06/02 00:33:42;;;;;;;;;;;;;;;22.93;60.09;98528.69;2087047;28;20321;-47
2023/06/02 00:34:43;;;;;;;;;;;;;;;22.93;60.14;98536.00;2088064;28;19972;-46
2023/06/02 00:35:44;;;;;;;;;;;;;;;22.93;60.20;98531.41;2087627;28;19924;-46
2023/06/02 00:36:45;;;;;;;;;;;;;;;22.93;59.95;98526.00;2084339;28;19935;-46
2023/06/02 00:37:47;;;;;;;;;;;;;;;22.96;60.23;98539.06;2078252;28;19928;-45
2023/06/02 00:38:48;;;;;;;;;;;;;;;22.96;60.15;98530.97;2078622;28;21197;-45
2023/06/02 00:39:49;;;;;;;;;;;;;;;22.94;60.13;98529.50;2076112;28;20027;-46
2023/06/02 00:40:51;;;;;;;;;;;;;;;22.94;60.03;98534.91;2083929;28;20008;-47
2023/06/02 00:41:54;;;;;;;;;;;;;;;22.92;60.18;98529.72;2083063;28;20402;-47
2023/06/02 00:42:54;;;;;;;;;;;;;;;22.92;60.21;98535.13;2086732;28;21661;-46
2023/06/02 00:43:55;;;;;;;;;;;;;;;22.91;60.26;98528.09;2088315;28;19934;-47
2023/06/02 00:44:56;;;;;;;;;;;;;;;22.93;60.17;98527.88;2085227;28;19924;-45
2023/06/02 00:45:57;;;;;;;;;;;;;;;22.93;60.13;98525.16;2085074;28;19994;-47
2023/06/02 00:46:58;;;;;;;;;;;;;;;22.93;60.08;98527.88;2085913;28;19971;-47
2023/06/02 00:48:01;;;;;;;;;;;;;;;22.92;59.98;98527.03;2088442;28;19928;-47
2023/06/02 00:49:01;;;;;;;;;;;;;;;22.91;60.23;98528.09;2086894;28;19935;-48
2023/06/02 00:50:02;;;;;;;;;;;;;;;22.90;60.35;98531.03;2085133;28;19924;-48
2023/06/02 00:51:04;;;;;;;;;;;;;;;22.91;60.21;98532.69;2087540;28;19928;-46
2023/06/02 00:52:06;;;;;;;;;;;;;;;22.92;60.04;98524.31;2087036;28;19920;-49
2023/06/02 00:53:06;;;;;;;;;;;;;;;22.91;60.31;98530.81;2087373;28;19959;-47
2023/06/02 00:54:09;;;;;;;;;;;;;;;22.90;60.03;98534.56;2085871;28;19925;-49
2023/06/02 00:55:09;;;;;;;;;;;;;;;22.91;60.12;98530.81;2075880;28;19924;-45
2023/06/02 00:56:14;;;;;;;;;;;;;;;22.89;60.26;98524.78;2080788;28;19920;-48
2023/06/02 00:57:14;;;;;;;;;;;;;;;22.89;60.21;98524.78;2077335;28;19924;-46
2023/06/02 00:58:16;;;;;;;;;;;;;;;22.89;60.20;98529.38;2083943;28;20370;-47
2023/06/02 00:59:18;;;;;;;;;;;;;;;22.88;60.26;98528.56;2088027;28;20043;-49
2023/06/02 01:00:20;;;;;;;;;;;;;;;22.88;60.42;98516.94;2084664;28;19924;-47
2023/06/02 01:01:21;;;;;;;;;;;;;;;22.89;60.30;98518.56;2086821;28;19920;-48
2023/06/02 01:02:23;;;;;;;;;;;;;;;22.90;60.20;98531.88;2088255;28;19920;-47
2023/06/02 01:03:24;;;;;;;;;;;;;;;22.89;60.20;98524.78;2085121;28;19959;-46
2023/06/02 01:04:26;;;;;;;;;;;;;;;22.88;60.22;98523.16;2080717;28;19931;-47
2023/06/02 01:05:26;;;;;;;;;;;;;;;22.89;60.24;98526.69;2084370;28;20024;-48
2023/06/02 01:06:34;;;;;;;;;;;;;;;22.91;60.32;98528.09;2079989;28;19928;-47
2023/06/02 01:07:37;;;;;;;;;;;;;;;22.87;60.37;98524.22;2088169;28;20302;-46
2023/06/02 01:08:39;;;;;;;;;;;;;;;22.88;60.29;98527.75;2081245;28;19928;-46
2023/06/02 01:09:41;;;;;;;;;;;;;;;22.89;60.01;98527.50;2086537;28;20019;-49
2023/06/02 01:10:43;;;;;;;;;;;;;;;22.87;60.40;98526.94;2081916;28;19963;-48
2023/06/02 01:11:45;;;;;;;;;;;;;;;22.86;60.25;98525.25;2083209;28;20018;-48
2023/06/02 01:12:46;;;;;;;;;;;;;;;22.88;60.14;98533.16;2081241;28;19925;-47
2023/06/02 01:13:48;;;;;;;;;;;;;;;22.87;60.30;98523.38;2087851;28;20007;-48
2023/06/02 01:14:49;;;;;;;;;;;;;;;22.88;60.29;98523.16;2089016;28;20012;-46
2023/06/02 01:15:50;;;;;;;;;;;;;;;22.86;60.24;98519.03;2090222;28;19959;-45
2023/06/02 01:16:52;;;;;;;;;;;;;;;22.85;60.24;98518.22;2086704;28;19936;-47
2023/06/02 01:17:53;;;;;;;;;;;;;;;22.88;60.18;98527.75;2074352;28;20010;-47
2023/06/02 01:18:54;;;;;;;;;;;;;;;22.86;60.09;98517.16;2084482;28;19921;-49
2023/06/02 01:19:56;;;;;;;;;;;;;;;22.85;60.34;98523.63;2086341;28;19924;-46
2023/06/02 01:20:57;;;;;;;;;;;;;;;22.85;60.33;98518.22;2083997;28;19964;-47
2023/06/02 01:22:01;;;;;;;;;;;;;;;22.88;60.29;98525.03;2085349;28;19929;-47
2023/06/02 01:23:08;;;;;;;;;;;;;;;22.87;60.22;98521.53;2086322;28;19925;-50
2023/06/02 01:24:10;;;;;;;;;;;;;;;22.87;60.25;98526.94;2086945;28;19970;-47
2023/06/02 01:25:18;;;;;;;;;;;;;;;22.85;60.24;98523.63;2081597;28;20475;-47
2023/06/02 01:26:20;;;;;;;;;;;;;;;22.86;60.26;98519.03;2088873;28;19931;-47
2023/06/02 01:27:21;;;;;;;;;;;;;;;22.85;60.31;98520.94;2084182;28;19950;-49
2023/06/02 01:28:22;;;;;;;;;;;;;;;22.85;60.15;98517.41;2075726;28;20465;-47
2023/06/02 01:29:23;;;;;;;;;;;;;;;22.87;60.11;98524.22;2082902;28;20027;-47
2023/06/02 01:30:25;;;;;;;;;;;;;;;22.84;60.31;98513.03;2088243;28;19935;-46
2023/06/02 01:31:27;;;;;;;;;;;;;;;22.85;60.26;98517.41;2086896;28;20378;-47
2023/06/02 01:32:35;;;;;;;;;;;;;;;22.84;60.32;98513.84;2088470;28;19928;-48
2023/06/02 01:33:39;;;;;;;;;;;;;;;22.85;60.31;98512.00;2087104;28;19995;-46
2023/06/02 01:34:44;;;;;;;;;;;;;;;22.84;60.39;98513.03;2087699;28;19932;-48
2023/06/02 01:35:47;;;;;;;;;;;;;;;22.84;60.49;98515.75;2088293;28;20403;-46
2023/06/02 01:36:51;;;;;;;;;;;;;;;22.84;60.29;98513.03;2083268;28;19924;-48
2023/06/02 01:37:56;;;;;;;;;;;;;;;22.85;60.33;98510.09;2085738;28;19932;-47
2023/06/02 01:38:58;;;;;;;;;;;;;;;22.84;60.36;98516.56;2083183;28;19928;-49
2023/06/02 01:40:03;;;;;;;;;;;;;;;22.84;60.31;98513.03;2085234;28;20027;-46
2023/06/02 01:41:06;;;;;;;;;;;;;;;22.83;60.43;98514.09;2090443;28;19936;-47
2023/06/02 01:42:08;;;;;;;;;;;;;;;22.84;60.09;98511.16;2087422;28;19969;-48
2023/06/02 01:43:09;;;;;;;;;;;;;;;22.84;60.31;98507.63;2088358;28;20406;-47
2023/06/02 01:44:11;;;;;;;;;;;;;;;22.83;60.21;98514.91;2086830;28;19960;-47
2023/06/02 01:45:12;;;;;;;;;;;;;;;22.83;60.38;98511.41;2088210;28;19921;-46
2023/06/02 01:46:13;;;;;;;;;;;;;;;22.82;60.19;98515.16;2085058;28;19924;-48
2023/06/02 01:47:14;;;;;;;;;;;;;;;22.81;60.32;98519.72;2080101;28;19966;-47
2023/06/02 01:48:15;;;;;;;;;;;;;;;22.81;60.33;98518.91;2085820;28;19977;-48
2023/06/02 01:49:17;;;;;;;;;;;;;;;22.81;60.24;98511.63;2087262;28;19920;-47
2023/06/02 01:50:17;;;;;;;;;;;;;;;22.81;60.45;98506.22;2086892;28;19974;-48
2023/06/02 01:51:19;;;;;;;;;;;;;;;22.82;60.27;98512.47;2086795;28;20907;-46
2023/06/02 01:52:20;;;;;;;;;;;;;;;22.81;60.29;98508.09;2078298;28;20365;-47
2023/06/02 01:53:23;;;;;;;;;;;;;;;22.82;60.24;98513.28;2087334;28;19924;-49
2023/06/02 01:54:23;;;;;;;;;;;;;;;22.80;60.30;98509.97;2084914;28;19925;-47
2023/06/02 01:55:26;;;;;;;;;;;;;;;22.82;60.22;98504.34;2084917;28;20063;-48
2023/06/02 01:56:26;;;;;;;;;;;;;;;22.80;60.26;98504.56;2083400;28;20005;-47
2023/06/02 01:57:28;;;;;;;;;;;;;;;22.80;60.20;98504.56;2087145;28;19966;-46
2023/06/02 01:58:29;;;;;;;;;;;;;;;22.81;60.42;98510.81;2084852;28;20309;-47
2023/06/02 01:59:30;;;;;;;;;;;;;;;22.80;60.26;98496.47;2080600;28;19920;-48
2023/06/02 02:00:31;;;;;;;;;;;;;;;22.80;60.35;98506.47;2085911;28;19924;-48
2023/06/02 02:01:33;;;;;;;;;;;;;;;22.80;60.26;98504.56;2087356;28;19986;-49
2023/06/02 02:02:34;;;;;;;;;;;;;;;22.78;60.35;98503.16;2089663;28;19920;-46
2023/06/02 02:03:37;;;;;;;;;;;;;;;22.78;60.31;98501.28;2082884;28;19935;-45
2023/06/02 02:04:40;;;;;;;;;;;;;;;22.78;60.30;98501.28;2082687;28;19963;-47
2023/06/02 02:05:41;;;;;;;;;;;;;;;22.80;60.16;98509.16;2066558;28;19924;-47
2023/06/02 02:06:44;;;;;;;;;;;;;;;22.80;60.36;98501.88;2082189;28;19974;-46
2023/06/02 02:07:47;;;;;;;;;;;;;;;22.81;60.23;98505.41;2084581;28;20562;-47
2023/06/02 02:08:48;;;;;;;;;;;;;;;22.78;60.33;98495.88;2086125;28;19935;-47
2023/06/02 02:09:49;;;;;;;;;;;;;;;22.81;60.11;98497.28;2089416;28;19943;-46
2023/06/02 02:10:51;;;;;;;;;;;;;;;22.79;60.27;98497.53;2088377;28;21981;-47
2023/06/02 02:11:53;;;;;;;;;;;;;;;22.82;60.14;98499.75;2087782;28;20027;-48
2023/06/02 02:12:53;;;;;;;;;;;;;;;22.79;60.21;98502.94;2088467;28;19956;-46
2023/06/02 02:13:55;;;;;;;;;;;;;;;22.78;60.24;98495.88;2081582;28;19936;-47
2023/06/02 02:14:57;;;;;;;;;;;;;;;22.80;60.23;98498.34;2088729;28;20029;-47
2023/06/02 02:15:58;;;;;;;;;;;;;;;22.79;60.26;98500.25;2086857;28;19978;-48
2023/06/02 02:17:00;;;;;;;;;;;;;;;22.79;60.27;98492.13;2085862;28;19967;-46
2023/06/02 02:18:02;;;;;;;;;;;;;;;22.78;60.19;98492.34;2083201;28;20364;-48
2023/06/02 02:19:03;;;;;;;;;;;;;;;22.78;60.26;98495.03;2087585;28;20641;-48
2023/06/02 02:20:05;;;;;;;;;;;;;;;22.78;60.26;98492.34;2088453;28;19920;-48
2023/06/02 02:21:06;;;;;;;;;;;;;;;22.77;60.31;98494.22;2085739;28;20492;-47
2023/06/02 02:22:07;;;;;;;;;;;;;;;22.76;60.29;98495.28;2086111;28;20016;-47
2023/06/02 02:23:08;;;;;;;;;;;;;;;22.77;60.10;98494.22;2067748;28;20027;-48
2023/06/02 02:24:09;;;;;;;;;;;;;;;22.77;60.16;98494.22;2083098;28;19928;-47
2023/06/02 02:25:10;;;;;;;;;;;;;;;22.77;60.19;98494.22;2087256;28;19987;-48
2023/06/02 02:26:13;;;;;;;;;;;;;;;22.79;60.31;98489.41;2083632;28;20439;-47
2023/06/02 02:27:13;;;;;;;;;;;;;;;22.77;60.30;98498.81;2085547;28;19928;-47
2023/06/02 02:28:15;;;;;;;;;;;;;;;22.77;60.23;98494.22;2080710;28;20294;-47
2023/06/02 02:29:15;;;;;;;;;;;;;;;22.76;60.24;98487.16;2089356;28;20111;-47
2023/06/02 02:30:17;;;;;;;;;;;;;;;22.75;60.33;98496.34;2079107;28;19929;-48
2023/06/02 02:31:17;;;;;;;;;;;;;;;22.74;60.29;98489.28;2078534;28;20023;-48
2023/06/02 02:32:19;;;;;;;;;;;;;;;22.74;60.24;98486.59;2082637;28;19928;-47
2023/06/02 02:33:19;;;;;;;;;;;;;;;22.73;60.38;98487.63;2083148;28;19921;-51
2023/06/02 02:34:24;;;;;;;;;;;;;;;22.74;60.31;98486.59;2083096;28;21810;-47
2023/06/02 02:35:25;;;;;;;;;;;;;;;22.74;60.29;98489.28;2087224;28;19920;-47
2023/06/02 02:36:26;;;;;;;;;;;;;;;22.75;60.34;98485.53;2081437;28;20019;-46
2023/06/02 02:37:27;;;;;;;;;;;;;;;22.73;60.32;98484.94;2082701;28;20753;-45
2023/06/02 02:38:28;;;;;;;;;;;;;;;22.73;60.33;98482.22;2082933;28;19993;-47
2023/06/02 02:39:29;;;;;;;;;;;;;;;22.71;60.21;98478.94;2086957;28;20602;-46
2023/06/02 02:40:30;;;;;;;;;;;;;;;22.75;60.21;98489.03;2074451;28;19921;-47
2023/06/02 02:41:32;;;;;;;;;;;;;;;22.75;60.17;98485.53;2081592;28;19940;-47
2023/06/02 02:42:34;;;;;;;;;;;;;;;22.73;60.28;98476.81;2080322;28;20472;-46
2023/06/02 02:43:35;;;;;;;;;;;;;;;22.72;60.36;98483.28;2085731;28;19927;-48
2023/06/02 02:44:36;;;;;;;;;;;;;;;22.72;60.29;98475.19;2082253;28;20023;-47
2023/06/02 02:45:37;;;;;;;;;;;;;;;22.72;60.31;98483.28;2083418;28;20314;-46
2023/06/02 02:46:38;;;;;;;;;;;;;;;22.71;60.32;98473.53;2084788;28;20221;-47
2023/06/02 02:47:38;;;;;;;;;;;;;;;22.70;60.37;98478.09;2081937;28;19928;-48
2023/06/02 02:48:40;;;;;;;;;;;;;;;22.71;60.37;98481.66;2086004;28;19929;-47
2023/06/02 02:49:40;;;;;;;;;;;;;;;22.70;60.40;98478.09;2084833;28;19956;-47
2023/06/02 02:50:42;;;;;;;;;;;;;;;22.72;60.25;98475.19;2089693;28;19927;-50
2023/06/02 02:51:42;;;;;;;;;;;;;;;22.72;60.39;98481.41;2083979;28;19974;-47
2023/06/02 02:52:44;;;;;;;;;;;;;;;22.70;60.17;98478.09;2082808;28;19921;-47
2023/06/02 02:53:44;;;;;;;;;;;;;;;22.71;60.21;98473.53;2083604;28;20000;-48
2023/06/02 02:54:46;;;;;;;;;;;;;;;22.70;60.16;98471.88;2088059;28;19927;-47
2023/06/02 02:55:46;;;;;;;;;;;;;;;22.71;60.29;98476.25;2085591;28;20012;-47
2023/06/02 02:56:50;;;;;;;;;;;;;;;22.70;60.27;98478.09;2082682;28;19927;-48
2023/06/02 02:57:50;;;;;;;;;;;;;;;22.72;60.17;98475.19;2080851;28;20375;-48
2023/06/02 02:58:52;;;;;;;;;;;;;;;22.70;60.25;98478.09;2089255;28;19920;-47
2023/06/02 02:59:52;;;;;;;;;;;;;;;22.70;60.27;98478.09;2086259;28;19962;-49
2023/06/02 03:00:55;;;;;;;;;;;;;;;22.69;60.27;98472.94;2086856;28;19932;-48
2023/06/02 03:01:56;;;;;;;;;;;;;;;22.70;60.24;98480.00;2085445;28;19928;-49
2023/06/02 03:03:01;;;;;;;;;;;;;;;22.70;60.25;98474.59;2079860;28;20474;-48
2023/06/02 03:04:02;;;;;;;;;;;;;;;22.70;60.16;98478.09;2083977;28;19929;-47
2023/06/02 03:05:06;;;;;;;;;;;;;;;22.69;60.26;98465.66;2083819;28;19924;-49
2023/06/02 03:06:06;;;;;;;;;;;;;;;22.70;60.22;98471.88;2079909;28;19931;-47
2023/06/02 03:07:08;;;;;;;;;;;;;;;22.68;60.24;98474.84;2078786;28;20019;-48
2023/06/02 03:08:09;;;;;;;;;;;;;;;22.71;60.29;98470.84;2079234;28;19982;-47
2023/06/02 03:09:11;;;;;;;;;;;;;;;22.69;60.28;98478.34;2083030;28;19920;-46
2023/06/02 03:10:11;;;;;;;;;;;;;;;22.69;60.24;98471.06;2083383;28;19928;-47
2023/06/02 03:11:13;;;;;;;;;;;;;;;22.70;60.31;98474.59;2084841;28;19925;-47
2023/06/02 03:12:15;;;;;;;;;;;;;;;22.69;60.25;98481.88;2085319;28;19928;-48
2023/06/02 03:13:16;;;;;;;;;;;;;;;22.69;60.37;98478.34;2089273;28;19928;-47
2023/06/02 03:14:16;;;;;;;;;;;;;;;22.69;60.31;98481.06;2073991;28;19925;-48
2023/06/02 03:15:19;;;;;;;;;;;;;;;22.68;60.29;98476.72;2085661;28;20602;-46
2023/06/02 03:16:19;;;;;;;;;;;;;;;22.69;60.25;98481.06;2086928;28;19924;-56
2023/06/02 03:17:22;;;;;;;;;;;;;;;22.69;60.32;98475.66;2086213;28;19920;-47
2023/06/02 03:18:23;;;;;;;;;;;;;;;22.68;60.34;98476.72;2086073;28;20117;-47
2023/06/02 03:19:26;;;;;;;;;;;;;;;22.66;60.20;98482.34;2083950;28;19971;-46
2023/06/02 03:20:26;;;;;;;;;;;;;;;22.67;60.20;98483.16;2082151;28;19960;-48
2023/06/02 03:21:31;;;;;;;;;;;;;;;22.66;60.25;98471.53;2085043;28;19920;-46
2023/06/02 03:22:33;;;;;;;;;;;;;;;22.67;60.35;98478.56;2082861;28;19931;-47
2023/06/02 03:23:36;;;;;;;;;;;;;;;22.66;60.31;98476.94;2085252;28;19997;-48
2023/06/02 03:24:36;;;;;;;;;;;;;;;22.66;60.34;98481.53;2087727;28;19993;-49
2023/06/02 03:25:38;;;;;;;;;;;;;;;22.66;60.18;98478.81;2087984;28;20427;-47
2023/06/02 03:26:40;;;;;;;;;;;;;;;22.66;60.27;98476.94;2087740;28;20030;-47
2023/06/02 03:27:43;;;;;;;;;;;;;;;22.67;60.26;98469.66;2085026;28;19953;-49
2023/06/02 03:28:45;;;;;;;;;;;;;;;22.67;60.44;98477.75;2087271;28;19960;-46
2023/06/02 03:29:47;;;;;;;;;;;;;;;22.66;60.06;98474.25;2086580;28;19935;-47
2023/06/02 03:30:47;;;;;;;;;;;;;;;22.68;60.13;98474.00;2086501;28;20031;-47
2023/06/02 03:31:50;;;;;;;;;;;;;;;22.67;60.26;98472.34;2084504;28;20287;-46
2023/06/02 03:32:52;;;;;;;;;;;;;;;22.67;60.17;98483.16;2080378;28;20130;-46
2023/06/02 03:33:53;;;;;;;;;;;;;;;22.67;60.30;98480.47;2086240;28;19982;-48
2023/06/02 03:34:54;;;;;;;;;;;;;;;22.67;60.29;98472.34;2083469;28;20034;-48
2023/06/02 03:35:56;;;;;;;;;;;;;;;22.69;60.33;98472.94;2084730;28;21911;-50
2023/06/02 03:37:01;;;;;;;;;;;;;;;22.67;60.36;98473.16;2081240;28;19954;-47
2023/06/02 03:38:05;;;;;;;;;;;;;;;22.66;60.37;98473.41;2085481;28;20019;-46
2023/06/02 03:39:07;;;;;;;;;;;;;;;22.65;60.28;98471.75;2083622;28;20335;-47
2023/06/02 03:40:08;;;;;;;;;;;;;;;22.65;60.27;98474.44;2079444;28;20397;-47
2023/06/02 03:41:10;;;;;;;;;;;;;;;22.64;60.47;98467.41;2085690;28;20748;-46
2023/06/02 03:42:10;;;;;;;;;;;;;;;22.64;60.32;98479.03;2085849;28;19974;-46
2023/06/02 03:43:13;;;;;;;;;;;;;;;22.63;60.39;98477.41;2085532;28;20631;-46
2023/06/02 03:44:14;;;;;;;;;;;;;;;22.65;60.38;98477.16;2085541;28;20792;-46
2023/06/02 03:45:16;;;;;;;;;;;;;;;22.64;60.33;98480.94;2086417;28;19975;-45
2023/06/02 03:46:16;;;;;;;;;;;;;;;22.64;60.30;98483.63;2086866;28;19960;-47
2023/06/02 03:47:18;;;;;;;;;;;;;;;22.64;60.32;98478.22;2086570;28;20409;-47
2023/06/02 03:48:18;;;;;;;;;;;;;;;22.63;60.22;98482.00;2083259;28;20035;-48
2023/06/02 03:49:20;;;;;;;;;;;;;;;22.61;60.35;98474.09;2086064;28;19929;-48
2023/06/02 03:50:20;;;;;;;;;;;;;;;22.63;60.41;98479.28;2076929;28;19967;-49
2023/06/02 03:51:22;;;;;;;;;;;;;;;22.63;60.18;98476.59;2084140;28;19921;-47
2023/06/02 03:52:24;;;;;;;;;;;;;;;22.63;60.45;98473.88;2088648;28;20405;-47
2023/06/02 03:53:25;;;;;;;;;;;;;;;22.62;60.31;98473.06;2086182;28;20957;-46
2023/06/02 03:54:25;;;;;;;;;;;;;;;22.63;60.30;98482.81;2087840;28;19932;-46
2023/06/02 03:55:27;;;;;;;;;;;;;;;22.64;60.25;98473.63;2082830;28;19929;-47
2023/06/02 03:56:28;;;;;;;;;;;;;;;22.63;60.24;98482.00;2085618;28;19920;-46
2023/06/02 03:57:29;;;;;;;;;;;;;;;22.62;60.34;98475.78;2086436;28;19977;-48
2023/06/02 03:58:31;;;;;;;;;;;;;;;22.62;60.22;98478.47;2083618;28;19924;-47
2023/06/02 03:59:33;;;;;;;;;;;;;;;22.65;60.15;98479.84;2090324;28;19924;-47
2023/06/02 04:00:33;;;;;;;;;;;;;;;22.62;60.31;98485.75;2086462;28;19920;-47
2023/06/02 04:01:35;;;;;;;;;;;;;;;22.63;60.24;98484.69;2082668;28;19924;-48
2023/06/02 04:02:35;;;;;;;;;;;;;;;22.62;60.32;98481.19;2085316;28;20020;-47
2023/06/02 04:03:37;;;;;;;;;;;;;;;22.64;60.23;98483.63;2087233;28;19920;-47
2023/06/02 04:04:37;;;;;;;;;;;;;;;22.60;60.16;98486.00;2080863;28;19967;-48
2023/06/02 04:05:39;;;;;;;;;;;;;;;22.64;60.47;98480.94;2083527;28;20025;-47
2023/06/02 04:06:41;;;;;;;;;;;;;;;22.61;60.15;98486.81;2082828;28;19958;-47
2023/06/02 04:07:43;;;;;;;;;;;;;;;22.60;60.49;98493.28;2086080;28;20305;-47
2023/06/02 04:08:45;;;;;;;;;;;;;;;22.60;60.41;98482.47;2079699;28;20023;-47
2023/06/02 04:09:46;;;;;;;;;;;;;;;22.62;60.19;98488.44;2085686;28;19934;-50
2023/06/02 04:10:47;;;;;;;;;;;;;;;22.60;60.20;98488.69;2085162;28;19956;-48
2023/06/02 04:11:48;;;;;;;;;;;;;;;22.61;60.38;98487.63;2082525;28;19927;-49
2023/06/02 04:12:49;;;;;;;;;;;;;;;22.60;60.33;98487.88;2085131;28;19920;-47
2023/06/02 04:13:51;;;;;;;;;;;;;;;22.62;60.38;98486.59;2084189;28;19967;-47
2023/06/02 04:14:52;;;;;;;;;;;;;;;22.62;60.42;98485.75;2086779;28;19920;-48
2023/06/02 04:15:53;;;;;;;;;;;;;;;22.61;60.20;98489.50;2082326;28;19920;-48
2023/06/02 04:16:54;;;;;;;;;;;;;;;22.59;60.47;98492.44;2084489;28;20948;-47
2023/06/02 04:17:56;;;;;;;;;;;;;;;22.61;60.32;98489.50;2080333;28;19928;-47
2023/06/02 04:18:56;;;;;;;;;;;;;;;22.60;60.26;98493.28;2082633;28;20452;-48
2023/06/02 04:19:57;;;;;;;;;;;;;;;22.60;60.34;98493.28;2086187;28;19928;-50
2023/06/02 04:20:58;;;;;;;;;;;;;;;22.61;60.28;98497.63;2081494;28;19981;-49
2023/06/02 04:22:00;;;;;;;;;;;;;;;22.60;60.32;98493.28;2082545;28;19982;-46
2023/06/02 04:23:00;;;;;;;;;;;;;;;22.60;60.28;98498.69;2081758;28;20363;-48
2023/06/02 04:24:01;;;;;;;;;;;;;;;22.62;60.11;98491.16;2081552;28;19966;-49
2023/06/02 04:25:02;;;;;;;;;;;;;;;22.60;60.23;98495.97;2086894;28;20019;-47
2023/06/02 04:26:04;;;;;;;;;;;;;;;22.59;60.27;98497.03;2082397;28;19925;-46
2023/06/02 04:27:05;;;;;;;;;;;;;;;22.59;60.22;98492.44;2086915;28;19924;-47
2023/06/02 04:28:07;;;;;;;;;;;;;;;22.59;60.37;98497.03;2087685;28;20018;-48
2023/06/02 04:29:10;;;;;;;;;;;;;;;22.58;60.34;98498.09;2086727;28;19924;-47
2023/06/02 04:30:12;;;;;;;;;;;;;;;22.58;60.38;98492.69;2084166;28;19921;-46
2023/06/02 04:31:12;;;;;;;;;;;;;;;22.59;60.40;98500.53;2074538;28;19929;-47
2023/06/02 04:32:14;;;;;;;;;;;;;;;22.58;60.45;98495.38;2084313;28;20533;-46
2023/06/02 04:33:15;;;;;;;;;;;;;;;22.58;60.22;98500.78;2083734;28;19931;-48
2023/06/02 04:34:16;;;;;;;;;;;;;;;22.59;60.22;98497.03;2085309;28;20375;-46
2023/06/02 04:35:18;;;;;;;;;;;;;;;22.57;60.36;98499.97;2084764;28;20155;-47
2023/06/02 04:36:19;;;;;;;;;;;;;;;22.58;60.23;98498.09;2084694;28;19929;-48
2023/06/02 04:37:20;;;;;;;;;;;;;;;22.59;60.36;98499.72;2085213;28;19981;-55
2023/06/02 04:38:21;;;;;;;;;;;;;;;22.57;60.30;98496.44;2089266;28;19973;-48
2023/06/02 04:39:23;;;;;;;;;;;;;;;22.57;60.36;98493.75;2085702;28;20295;-47
2023/06/02 04:40:23;;;;;;;;;;;;;;;22.59;60.51;98497.03;2078380;28;20031;-47
2023/06/02 04:41:25;;;;;;;;;;;;;;;22.57;60.35;98502.69;2082322;28;21809;-45
2023/06/02 04:42:25;;;;;;;;;;;;;;;22.57;60.26;98502.69;2081795;28;19995;-46
2023/06/02 04:43:27;;;;;;;;;;;;;;;22.57;60.39;98499.16;2084786;28;19935;-47
2023/06/02 04:44:29;;;;;;;;;;;;;;;22.56;60.35;98497.50;2086347;28;19960;-47
2023/06/02 04:45:30;;;;;;;;;;;;;;;22.54;60.41;98503.16;2084957;28;19928;-50
2023/06/02 04:46:30;;;;;;;;;;;;;;;22.55;60.37;98499.38;2081493;28;20058;-49
2023/06/02 04:47:32;;;;;;;;;;;;;;;22.55;60.25;98498.56;2082629;28;19924;-48
2023/06/02 04:48:33;;;;;;;;;;;;;;;22.54;60.39;98492.34;2086642;28;19928;-47
2023/06/02 04:49:34;;;;;;;;;;;;;;;22.56;60.33;98500.19;2085763;28;19931;-48
2023/06/02 04:50:36;;;;;;;;;;;;;;;22.55;60.30;98495.84;2085571;28;20049;-48
2023/06/02 04:51:37;;;;;;;;;;;;;;;22.56;60.30;98502.91;2079569;28;19945;-47
2023/06/02 04:52:39;;;;;;;;;;;;;;;22.55;60.29;98507.47;2082261;28;20825;-47
2023/06/02 04:53:40;;;;;;;;;;;;;;;22.55;60.43;98506.66;2085300;28;19928;-48
2023/06/02 04:54:43;;;;;;;;;;;;;;;22.55;60.24;98507.47;2088166;28;19956;-48
2023/06/02 04:55:44;;;;;;;;;;;;;;;22.55;60.48;98518.28;2082792;28;19928;-47
2023/06/02 04:56:45;;;;;;;;;;;;;;;22.55;60.49;98503.97;2086721;28;19932;-46
2023/06/02 04:57:46;;;;;;;;;;;;;;;22.56;60.35;98509.13;2079399;28;20014;-48
2023/06/02 04:58:48;;;;;;;;;;;;;;;22.56;60.35;98513.72;2086825;28;19925;-47
2023/06/02 04:59:50;;;;;;;;;;;;;;;22.57;60.35;98515.38;2086444;28;19928;-48
2023/06/02 05:00:51;;;;;;;;;;;;;;;22.53;60.32;98509.59;2084487;28;19966;-47
2023/06/02 05:01:52;;;;;;;;;;;;;;;22.55;60.33;98510.19;2081890;28;20015;-47
2023/06/02 05:02:54;;;;;;;;;;;;;;;22.53;60.33;98513.09;2078104;28;19927;-50
2023/06/02 05:03:54;;;;;;;;;;;;;;;22.54;60.33;98511.25;2083852;28;20015;-48
2023/06/02 05:04:55;;;;;;;;;;;;;;;22.55;60.34;98506.66;2084367;28;19928;-46
2023/06/02 05:05:56;;;;;;;;;;;;;;;22.53;60.38;98509.59;2085796;28;19932;-47
2023/06/02 05:06:57;;;;;;;;;;;;;;;22.55;60.55;98512.06;2083261;28;19925;-47
2023/06/02 05:07:58;;;;;;;;;;;;;;;22.53;60.41;98512.28;2084198;28;20402;-47
2023/06/02 05:09:00;;;;;;;;;;;;;;;22.55;60.30;98509.38;2083659;28;19925;-47
2023/06/02 05:10:00;;;;;;;;;;;;;;;22.55;60.23;98509.38;2082912;28;19979;-48
2023/06/02 05:11:02;;;;;;;;;;;;;;;22.53;60.31;98504.19;2076799;28;19931;-47
2023/06/02 05:12:03;;;;;;;;;;;;;;;22.52;60.39;98502.53;2076864;28;19972;-50
2023/06/02 05:13:04;;;;;;;;;;;;;;;22.52;60.31;98508.78;2083943;28;19927;-46
2023/06/02 05:14:05;;;;;;;;;;;;;;;22.52;60.35;98508.78;2085349;28;19952;-48
2023/06/02 05:15:09;;;;;;;;;;;;;;;22.52;60.23;98503.34;2083674;28;19952;-48
2023/06/02 05:16:09;;;;;;;;;;;;;;;22.52;60.26;98497.97;2081623;28;20770;-47
2023/06/02 05:17:11;;;;;;;;;;;;;;;22.53;60.26;98498.78;2075430;28;20037;-47
2023/06/02 05:18:14;;;;;;;;;;;;;;;22.52;60.36;98495.25;2080676;28;19950;-46
2023/06/02 05:19:16;;;;;;;;;;;;;;;22.52;60.32;98497.97;2079587;28;19964;-47
2023/06/02 05:20:16;;;;;;;;;;;;;;;22.50;60.54;98494.66;2081728;28;19924;-49
2023/06/02 05:21:18;;;;;;;;;;;;;;;22.52;60.44;98502.53;2078578;28;20705;-47